Brice, Indiana
Current Conditions -  °F | °C
As of 12:53 AM on Thursday 29 Jan 2015 (Local Time) from KMIE Reporting Station
Clear Clear  
Wind Chill: 22°   Ceiling: Unl
Heat Index: 33°   Visibility: 10mi
Dew Point: 20°   Wind: 17mph
Humidity: 59%   Direction: 180°S
Pressure: 29.97"   Gusts: 31mph
Location:  40.4312°N, 85.0058°W
Report Text: KMIE 290553Z AUTO 18015G27KT 10SM CLR 01/M07 A2997 RMK AO2 PK WND 18027/0548 SLP156 T00061067 10006 21011 58031
Loading
Personal Weather Stations






























Interactive Weather Map New forecast layout! Learn more

10-Day Weather Forecast

Advertisements
Track Severe Weather on mobile